Time;durP1;ratioP1;P1;durP2;ratioP2;P2;SDS_P1;SDS_P2;PMS_P1;PMS_P2;Temp;Humidity;BMP_temperature;BMP_pressure;BME280_temperature;BME280_humidity;BME280_pressure;Samples;Min_cycle;Max_cycle;Signal;HPM_P1;HPM_P2
2022/09/28 00:01:13;;;;;;;4.73;3.60;;;;;;;20.26;61.83;98385.03;5091116;28;20041;-79
2022/09/28 00:03:39;;;;;;;4.30;3.47;;;;;;;20.43;61.87;98430.34;5090388;28;20038;-79
2022/09/28 00:06:07;;;;;;;3.92;3.22;;;;;;;20.14;61.86;98377.25;5090270;28;20111;-79
2022/09/28 00:08:36;;;;;;;3.75;3.33;;;;;;;20.64;61.98;98461.44;5092623;28;20024;-79
2022/09/28 00:11:03;;;;;;;4.72;3.40;;;;;;;20.13;61.94;98389.06;5118246;28;20088;-78
2022/09/28 00:13:32;;;;;;;4.93;3.60;;;;;;;20.36;62.01;98430.59;5110130;28;20072;-79
2022/09/28 00:16:05;;;;;;;6.28;3.38;;;;;;;20.49;62.05;98456.91;5091488;28;20093;-79
2022/09/28 00:18:32;;;;;;;5.68;3.20;;;;;;;20.15;62.32;98412.91;5090620;28;20455;-79
2022/09/28 00:21:10;;;;;;;6.53;3.65;;;;;;;20.10;62.41;98415.59;5091698;28;20024;-79
2022/09/28 00:24:11;;;;;;;4.03;3.33;;;;;;;20.33;62.41;98468.66;5090054;28;20024;-79
2022/09/28 00:26:25;;;;;;;4.88;3.50;;;;;;;19.93;62.38;98399.72;5091044;28;20394;-79
2022/09/28 00:28:52;;;;;;;7.22;4.10;;;;;;;19.49;62.64;98349.28;5091209;28;20023;-79
2022/09/28 00:31:18;;;;;;;4.00;3.47;;;;;;;19.74;62.82;98387.94;5091273;28;20016;-79
2022/09/28 00:33:43;;;;;;;5.28;3.92;;;;;;;20.15;62.64;98459.28;5091216;28;20085;-79
2022/09/28 00:36:09;;;;;;;7.63;3.70;;;;;;;19.80;62.55;98394.91;5090146;28;20024;-77
2022/09/28 00:38:35;;;;;;;4.97;3.63;;;;;;;19.80;62.40;98392.22;5090181;28;20489;-79
2022/09/28 00:41:00;;;;;;;5.22;3.35;;;;;;;20.10;62.52;98445.06;5091231;28;20030;-79
2022/09/28 00:43:26;;;;;;;3.60;3.28;;;;;;;20.21;62.67;98465.44;5092144;28;20095;-79
2022/09/28 00:46:01;;;;;;;4.57;4.10;;;;;;;20.08;62.78;98444.53;5094484;28;20024;-79
2022/09/28 00:48:31;;;;;;;5.32;3.90;;;;;;;19.94;62.79;98438.84;5094375;28;20098;-79
2022/09/28 00:51:01;;;;;;;4.40;3.50;;;;;;;20.02;62.88;98475.84;5093194;28;20013;-78
2022/09/28 00:53:30;;;;;;;5.10;3.63;;;;;;;19.73;62.95;98427.28;5094922;28;20016;-79
2022/09/28 00:56:02;;;;;;;5.30;3.97;;;;;;;19.00;63.00;98316.75;5094633;28;20024;-79
2022/09/28 00:58:35;;;;;;;5.68;3.70;;;;;;;19.99;63.06;98471.81;5094574;28;20055;-80
2022/09/28 01:01:01;;;;;;;3.97;3.25;;;;;;;19.61;63.06;98421.38;5092929;28;20512;-79
2022/09/28 01:03:27;;;;;;;4.55;3.60;;;;;;;19.93;62.86;98464.84;5094643;28;20099;-79
2022/09/28 01:05:54;;;;;;;4.47;3.67;;;;;;;19.93;63.02;98469.38;5093696;28;20038;-79
2022/09/28 01:08:22;;;;;;;5.18;3.63;;;;;;;19.47;62.90;98396.94;5094435;28;20099;-78
2022/09/28 01:10:48;;;;;;;5.40;4.03;;;;;;;18.46;62.65;98228.78;5093000;28;20016;-78
2022/09/28 01:13:16;;;;;;;5.00;3.58;;;;;;;19.38;62.83;98366.41;5093652;28;20035;-80
2022/09/28 01:16:16;;;;;;;4.10;3.67;;;;;;;19.40;62.77;98382.19;5094226;28;20028;-79
2022/09/28 01:19:03;;;;;;;4.88;3.45;;;;;;;19.89;62.67;98449.56;5084319;28;20036;-79
2022/09/28 01:21:55;;;;;;;5.68;3.85;;;;;;;19.62;62.82;98414.94;5093952;28;20484;-79
2022/09/28 01:24:29;;;;;;;5.45;3.50;;;;;;;19.79;62.48;98444.97;5093356;28;20036;-79
2022/09/28 01:27:09;;;;;;;4.30;3.67;;;;;;;19.26;63.03;98379.19;5094035;28;20062;-79
2022/09/28 01:29:46;;;;;;;4.10;3.40;;;;;;;18.99;62.83;98342.69;5092521;28;20435;-78
2022/09/28 01:32:42;;;;;;;5.80;4.00;;;;;;;19.58;63.24;98459.38;5093709;28;20033;-79
2022/09/28 01:35:20;;;;;;;7.70;4.50;;;;;;;19.14;63.14;98389.31;5092280;28;20020;-79
2022/09/28 01:37:51;;;;;;;4.32;3.92;;;;;;;19.03;63.40;98393.81;5093487;28;20057;-79
2022/09/28 01:40:19;;;;;;;5.32;3.80;;;;;;;19.00;63.28;98387.09;5092210;28;20074;-78
2022/09/28 01:42:49;;;;;;;4.35;3.90;;;;;;;19.43;63.26;98454.75;5092133;28;20020;-79
2022/09/28 01:45:29;;;;;;;3.85;3.45;;;;;;;19.40;63.31;98446.44;5093371;28;20459;-79
2022/09/28 01:48:00;;;;;;;4.68;3.90;;;;;;;18.65;63.56;98350.28;5093310;28;20052;-79
2022/09/28 01:50:29;;;;;;;5.18;3.70;;;;;;;19.38;63.15;98460.09;5093089;28;20020;-79
2022/09/28 01:53:01;;;;;;;5.30;3.63;;;;;;;18.97;63.24;98384.16;5093129;28;20100;-79
2022/09/28 01:55:36;;;;;;;4.10;3.70;;;;;;;19.48;63.00;98444.06;5092413;28;20381;-79
2022/09/28 01:58:17;;;;;;;4.47;3.65;;;;;;;19.13;62.95;98403.75;5093359;28;20081;-79
2022/09/28 02:00:48;;;;;;;4.68;3.63;;;;;;;19.12;63.00;98404.81;5093296;28;20032;-79
2022/09/28 02:03:22;;;;;;;4.33;3.87;;;;;;;19.16;62.83;98412.06;5093335;28;20169;-79
2022/09/28 02:05:53;;;;;;;5.10;4.53;;;;;;;19.32;62.93;98453.06;5092948;28;20024;-79
2022/09/28 02:08:27;;;;;;;5.15;3.95;;;;;;;19.13;63.07;98425.94;5093113;28;20492;-79
2022/09/28 02:11:14;;;;;;;4.55;4.15;;;;;;;19.29;63.04;98467.78;5092983;28;20615;-79
2022/09/28 02:13:45;;;;;;;4.57;4.18;;;;;;;19.20;63.26;98452.47;5092832;28;20028;-79
2022/09/28 02:16:51;;;;;;;6.28;4.63;;;;;;;19.23;63.34;98462.66;5092838;28;20020;-79
2022/09/28 02:19:19;;;;;;;5.35;4.05;;;;;;;19.31;62.79;98456.81;5053579;28;20021;-79
2022/09/28 02:21:44;;;;;;;5.07;4.38;;;;;;;19.33;62.89;98460.06;5089375;28;20032;-79
2022/09/28 02:24:34;;;;;;;5.03;4.43;;;;;;;19.13;62.83;98436.66;5091759;28;20027;-79
2022/09/28 02:27:08;;;;;;;5.18;4.35;;;;;;;18.69;62.88;98382.66;5092643;28;20032;-79
2022/09/28 02:29:33;;;;;;;7.00;4.55;;;;;;;19.05;62.95;98440.63;5092778;28;20512;-79
2022/09/28 02:31:59;;;;;;;4.50;3.83;;;;;;;18.82;62.92;98405.47;5092569;28;20020;-79
2022/09/28 02:34:24;;;;;;;5.13;4.07;;;;;;;18.83;63.05;98425.78;5092486;28;20027;-78
2022/09/28 02:36:50;;;;;;;4.95;4.45;;;;;;;18.68;62.93;98405.94;5091356;28;20039;-79
2022/09/28 02:39:17;;;;;;;5.38;4.10;;;;;;;18.76;63.01;98404.63;5092558;28;20024;-79
2022/09/28 02:42:07;;;;;;;5.15;3.92;;;;;;;19.16;63.02;98465.56;5092911;28;20512;-79
2022/09/28 02:44:36;;;;;;;5.43;3.92;;;;;;;19.23;62.66;98466.13;5091315;28;20031;-79
2022/09/28 02:47:20;;;;;;;5.47;3.75;;;;;;;19.28;62.60;98455.47;5092782;28;20016;-79
2022/09/28 02:50:07;;;;;;;6.35;3.97;;;;;;;18.72;62.47;98374.13;5091265;28;20020;-79
2022/09/28 02:52:47;;;;;;;5.28;3.55;;;;;;;19.23;62.86;98450.09;5092448;28;20449;-79
2022/09/28 02:55:31;;;;;;;5.35;3.75;;;;;;;19.23;62.64;98443.94;5092578;28;20097;-78
2022/09/28 02:58:02;;;;;;;4.78;3.60;;;;;;;19.27;62.57;98445.81;5092545;28;20080;-79
2022/09/28 03:00:32;;;;;;;5.28;4.50;;;;;;;19.13;62.56;98427.81;5091643;28;20044;-79
2022/09/28 03:03:08;;;;;;;7.50;4.75;;;;;;;19.32;62.43;98451.22;5092221;28;20393;-79
2022/09/28 03:06:00;;;;;;;4.70;4.15;;;;;;;18.89;62.47;98401.50;5091992;28;20055;-79
2022/09/28 03:08:56;;;;;;;5.03;4.03;;;;;;;19.21;62.68;98459.44;5091761;28;20093;-79
2022/09/28 03:11:28;;;;;;;6.88;3.90;;;;;;;18.67;62.41;98380.25;5091160;28;20059;-79
2022/09/28 03:13:55;;;;;;;6.25;4.10;;;;;;;18.67;62.30;98379.44;5091788;28;20103;-79
2022/09/28 03:16:20;;;;;;;5.38;4.45;;;;;;;18.92;62.15;98416.22;5091678;28;20051;-79
2022/09/28 03:18:46;;;;;;;4.50;4.10;;;;;;;19.20;62.32;98469.34;5090377;28;20063;-79
2022/09/28 03:21:13;;;;;;;4.65;4.25;;;;;;;18.62;62.18;98380.22;5090512;28;20024;-78
2022/09/28 03:23:40;;;;;;;5.13;4.05;;;;;;;18.58;62.23;98373.75;5096041;28;20606;-79
2022/09/28 03:26:07;;;;;;;6.40;3.90;;;;;;;19.06;62.33;98468.19;5108820;28;20020;-80
2022/09/28 03:28:35;;;;;;;6.63;4.75;;;;;;;18.74;62.35;98420.13;5118280;28;20007;-79
2022/09/28 03:31:00;;;;;;;7.53;3.90;;;;;;;18.62;62.60;98400.81;5105481;28;20024;-79
2022/09/28 03:33:26;;;;;;;7.97;4.63;;;;;;;18.76;62.31;98431.38;5091776;28;20012;-79
2022/09/28 03:35:52;;;;;;;8.77;4.50;;;;;;;18.98;62.37;98471.34;5092129;28;20098;-78
2022/09/28 03:38:18;;;;;;;6.75;4.30;;;;;;;19.13;62.46;98484.81;5091140;28;20107;-79
2022/09/28 03:40:52;;;;;;;5.97;4.15;;;;;;;18.85;62.22;98435.19;5091931;28;20492;-79
2022/09/28 03:43:17;;;;;;;8.75;4.28;;;;;;;19.03;62.17;98460.69;5091620;28;20031;-79
2022/09/28 03:45:42;;;;;;;7.40;5.00;;;;;;;18.64;62.00;98394.13;5090789;28;20023;-79
2022/09/28 03:48:08;;;;;;;11.15;6.40;;;;;;;18.30;61.96;98348.16;5091825;28;20492;-79
2022/09/28 03:50:33;;;;;;;9.13;5.70;;;;;;;18.27;62.44;98385.28;5091541;28;20028;-79
2022/09/28 03:53:03;;;;;;;6.25;5.25;;;;;;;18.66;62.33;98431.31;5092125;28;20059;-79
2022/09/28 03:55:28;;;;;;;7.55;5.45;;;;;;;19.00;62.51;98494.09;5108501;28;20045;-79
2022/09/28 03:57:54;;;;;;;7.22;4.88;;;;;;;18.70;62.47;98456.47;5117900;28;20020;-78
2022/09/28 04:00:20;;;;;;;6.05;5.05;;;;;;;18.45;62.17;98416.13;5095304;28;20046;-79
2022/09/28 04:02:45;;;;;;;7.53;5.32;;;;;;;18.36;62.04;98397.91;5090675;28;20098;-79
2022/09/28 04:05:11;;;;;;;7.30;5.32;;;;;;;18.55;61.88;98421.53;5091872;28;20020;-79
2022/09/28 04:07:36;;;;;;;5.03;4.53;;;;;;;19.03;61.77;98496.28;5091361;28;20481;-79
2022/09/28 04:10:02;;;;;;;6.38;4.50;;;;;;;18.86;62.08;98495.63;5091275;28;20027;-79
2022/09/28 04:12:27;;;;;;;5.15;4.65;;;;;;;18.22;62.08;98401.25;5091361;28;20090;-79
2022/09/28 04:14:52;;;;;;;7.20;5.47;;;;;;;18.78;62.20;98489.94;5091308;28;20020;-79
2022/09/28 04:17:18;;;;;;;8.80;5.75;;;;;;;18.15;62.02;98401.47;5091225;28;20027;-79
2022/09/28 04:19:43;;;;;;;5.97;4.85;;;;;;;18.69;62.24;98511.81;5094581;28;20049;-79
2022/09/28 04:22:09;;;;;;;7.03;5.18;;;;;;;18.03;62.18;98408.84;5094038;28;20020;-79
2022/09/28 04:24:34;;;;;;;8.50;5.35;;;;;;;18.14;62.13;98415.09;5095176;28;20072;-79
2022/09/28 04:29:43;;;;;;;10.02;5.90;;;;;;;17.98;62.09;98404.28;5095128;28;20062;-79
2022/09/28 04:32:10;;;;;;;11.15;6.43;;;;;;;18.47;61.92;98511.03;5095180;28;20021;-79
2022/09/28 04:34:35;;;;;;;11.85;6.78;;;;;;;18.18;61.68;98437.56;5095079;28;20031;-79
2022/09/28 04:37:01;;;;;;;8.50;6.05;;;;;;;17.81;61.75;98387.53;5094989;28;20028;-79
2022/09/28 04:39:26;;;;;;;11.90;7.13;;;;;;;18.09;61.68;98435.34;5093290;28;20019;-79
2022/09/28 04:41:51;;;;;;;9.05;6.40;;;;;;;17.88;61.88;98419.41;5093458;28;20115;-79
2022/09/28 04:44:17;;;;;;;9.07;6.72;;;;;;;16.87;61.92;98259.78;5094701;28;20031;-79
2022/09/28 04:46:42;;;;;;;8.30;6.10;;;;;;;18.05;62.03;98436.91;5093276;28;20024;-79
2022/09/28 04:49:09;;;;;;;8.82;7.85;;;;;;;18.22;61.97;98476.06;5093753;28;20460;-79
2022/09/28 04:51:35;;;;;;;11.43;7.65;;;;;;;18.11;61.86;98469.81;5094534;28;20114;-79
2022/09/28 04:54:00;;;;;;;9.95;6.78;;;;;;;17.95;62.11;98460.06;5094911;28;20055;-79
2022/09/28 04:56:25;;;;;;;8.93;5.72;;;;;;;17.85;62.24;98457.28;5094726;28;20480;-79
2022/09/28 04:58:51;;;;;;;7.32;5.57;;;;;;;18.03;62.04;98479.09;5094545;28;20067;-79
2022/09/28 05:01:17;;;;;;;7.85;5.90;;;;;;;17.46;62.08;98395.97;5094183;28;20127;-79
2022/09/28 05:03:43;;;;;;;6.55;5.50;;;;;;;18.36;61.78;98552.91;5094745;28;20020;-79
2022/09/28 05:06:13;;;;;;;9.20;5.15;;;;;;;18.12;61.84;98522.19;5094428;28;20027;-79
2022/09/28 05:08:39;;;;;;;6.20;4.95;;;;;;;18.39;62.01;98551.59;5094554;28;20020;-79
2022/09/28 05:11:06;;;;;;;5.07;4.57;;;;;;;17.93;61.87;98471.00;5094603;28;20024;-79
2022/09/28 05:13:39;;;;;;;9.60;6.25;;;;;;;18.38;61.79;98537.41;5094550;28;20024;-79
2022/09/28 05:16:05;;;;;;;7.15;5.53;;;;;;;17.37;61.67;98371.59;5094893;28;20098;-79
2022/09/28 05:18:30;;;;;;;6.65;4.80;;;;;;;17.76;61.70;98440.88;5093703;28;20491;-79
2022/09/28 05:20:55;;;;;;;6.63;4.43;;;;;;;17.88;61.48;98444.22;5094819;28;20048;-79
2022/09/28 05:23:21;;;;;;;4.95;4.45;;;;;;;17.88;61.50;98452.25;5094400;28;20020;-79
2022/09/28 05:25:46;;;;;;;6.80;5.57;;;;;;;18.02;61.37;98466.81;5093113;28;20454;-79
2022/09/28 05:28:12;;;;;;;6.72;4.97;;;;;;;18.54;61.34;98551.72;5094028;28;20024;-79
2022/09/28 05:30:37;;;;;;;6.03;5.22;;;;;;;18.66;61.37;98556.97;5093927;28;20016;-79
2022/09/28 05:33:03;;;;;;;6.03;4.85;;;;;;;18.02;61.32;98449.97;5092796;28;20024;-79
2022/09/28 05:35:29;;;;;;;10.27;5.38;;;;;;;18.08;61.33;98452.44;5093958;28;20042;-79
2022/09/28 05:37:54;;;;;;;7.32;5.50;;;;;;;18.54;61.29;98524.19;5093769;28;20037;-79
2022/09/28 05:40:20;;;;;;;9.15;6.15;;;;;;;18.66;61.35;98515.00;5093645;28;20027;-79
2022/09/28 05:42:45;;;;;;;9.45;5.68;;;;;;;18.55;61.27;98507.91;5091880;28;20394;-79
2022/09/28 05:45:11;;;;;;;8.32;6.13;;;;;;;18.80;61.18;98518.03;5092503;28;20076;-79
2022/09/28 05:47:41;;;;;;;9.30;5.80;;;;;;;19.10;61.07;98559.44;5093750;28;20484;-79
2022/09/28 05:50:10;;;;;;;8.38;5.15;;;;;;;19.00;60.87;98534.25;5093608;28;20047;-79
2022/09/28 05:52:38;;;;;;;10.55;5.32;;;;;;;18.64;60.93;98452.16;5092344;28;20031;-79
2022/09/28 05:55:05;;;;;;;10.15;6.55;;;;;;;19.20;60.83;98556.84;5092227;28;20413;-79
2022/09/28 05:57:31;;;;;;;9.90;6.72;;;;;;;19.27;61.15;98547.53;5093690;28;20447;-78
2022/09/28 05:59:56;;;;;;;7.05;5.88;;;;;;;18.33;60.88;98394.94;5093253;28;20035;-79
2022/09/28 06:02:22;;;;;;;8.27;5.75;;;;;;;19.47;60.92;98570.16;5092027;28;20027;-79
2022/09/28 06:04:49;;;;;;;9.38;4.43;;;;;;;19.53;60.80;98582.53;5092145;28;20028;-78
2022/09/28 06:07:15;;;;;;;8.20;5.22;;;;;;;19.60;60.77;98570.50;5093720;28;20459;-78
2022/09/28 06:09:41;;;;;;;5.47;4.32;;;;;;;19.00;60.93;98485.28;5093267;28;20024;-79
2022/09/28 06:12:06;;;;;;;6.72;4.30;;;;;;;19.26;60.91;98513.00;5093344;28;20027;-78
2022/09/28 06:14:31;;;;;;;4.82;4.18;;;;;;;19.00;60.84;98462.00;5091244;28;20016;-79
2022/09/28 06:16:57;;;;;;;10.27;4.90;;;;;;;19.42;60.91;98513.91;5091473;28;20169;-79
2022/09/28 06:19:22;;;;;;;8.70;5.10;;;;;;;19.50;60.80;98522.25;5089329;28;20111;-79
2022/09/28 06:21:48;;;;;;;7.07;4.50;;;;;;;19.92;60.59;98575.75;5077597;28;20012;-79
2022/09/28 06:24:13;;;;;;;6.47;4.50;;;;;;;19.96;60.64;98576.03;5091606;28;20036;-79
2022/09/28 06:26:38;;;;;;;7.63;6.43;;;;;;;19.74;60.73;98549.41;5092239;28;20024;-79
2022/09/28 06:29:04;;;;;;;6.68;4.63;;;;;;;20.01;60.73;98613.56;5093349;28;20020;-79
2022/09/28 06:31:30;;;;;;;6.65;4.32;;;;;;;19.64;60.63;98509.22;5091644;28;20044;-79
2022/09/28 06:33:55;;;;;;;6.97;4.88;;;;;;;19.77;60.78;98524.78;5093261;28;20020;-80
2022/09/28 06:36:21;;;;;;;6.20;5.18;;;;;;;19.94;60.76;98546.00;5090805;28;20389;-79
2022/09/28 06:38:47;;;;;;;7.68;6.57;;;;;;;20.24;60.69;98606.97;5092527;28;20150;-79
2022/09/28 06:41:12;;;;;;;5.90;3.78;;;;;;;20.10;60.15;98561.09;5091943;28;20023;-79
2022/09/28 06:43:38;;;;;;;5.03;4.25;;;;;;;20.23;59.92;98555.22;5091014;28;20419;-78
2022/09/28 06:46:05;;;;;;;5.13;4.47;;;;;;;20.41;59.79;98575.41;5072495;28;20555;-79
2022/09/28 06:48:32;;;;;;;4.93;4.38;;;;;;;19.98;59.95;98502.34;5073498;28;20040;-79
2022/09/28 06:50:59;;;;;;;5.80;5.18;;;;;;;20.43;60.09;98564.41;5072283;28;20077;-79
2022/09/28 06:53:26;;;;;;;8.25;7.30;;;;;;;20.31;59.79;98533.28;5079086;28;20393;-79
2022/09/28 06:55:51;;;;;;;8.50;7.60;;;;;;;20.43;59.60;98545.66;5079606;28;21384;-80
2022/09/28 06:58:18;;;;;;;7.10;6.40;;;;;;;20.82;59.69;98587.00;5077975;28;20024;-79
2022/09/28 07:00:46;;;;;;;4.65;4.13;;;;;;;20.89;59.46;98594.78;5076604;28;21156;-79
2022/09/28 07:03:18;;;;;;;27.70;24.77;;;;;;;20.33;59.25;98479.38;5082511;28;20032;-79
2022/09/28 07:05:47;;;;;;;13.88;11.13;;;;;;;21.06;59.05;98594.53;5074030;28;20497;-79
2022/09/28 07:08:13;;;;;;;9.98;8.30;;;;;;;20.82;58.59;98551.34;5072206;28;20115;-79
2022/09/28 07:10:47;;;;;;;6.82;6.22;;;;;;;20.81;58.11;98539.78;5072715;28;20017;-79
2022/09/28 07:13:13;;;;;;;6.25;5.65;;;;;;;21.19;58.35;98589.41;5081504;28;20028;-79
2022/09/28 07:15:40;;;;;;;11.35;10.15;;;;;;;20.89;58.11;98533.09;5096153;28;20024;-79
2022/09/28 07:18:06;;;;;;;10.02;8.35;;;;;;;21.32;57.80;98587.28;5091450;28;20028;-79
2022/09/28 07:20:35;;;;;;;8.30;7.50;;;;;;;20.82;57.82;98500.34;5072808;28;20484;-79
2022/09/28 07:23:04;;;;;;;9.30;5.85;;;;;;;21.44;57.35;98585.91;5075163;28;20548;-78
2022/09/28 07:25:31;;;;;;;6.22;4.53;;;;;;;21.50;57.10;98584.00;5076239;28;20024;-78
2022/09/28 07:27:58;;;;;;;7.75;5.65;;;;;;;20.64;56.82;98429.25;5079311;28;20101;-79
2022/09/28 07:30:26;;;;;;;9.52;5.70;;;;;;;21.22;56.56;98513.72;5082571;28;20029;-79
2022/09/28 07:32:52;;;;;;;11.10;9.15;;;;;;;21.11;56.73;98487.97;5071685;28;20021;-79
2022/09/28 07:35:17;;;;;;;10.38;7.50;;;;;;;21.43;56.70;98535.97;5071726;28;20107;-78
2022/09/28 07:37:43;;;;;;;10.80;8.95;;;;;;;21.60;56.58;98551.78;5070568;28;20582;-78
2022/09/28 07:42:53;;;;;;;7.75;5.78;;;;;;;21.82;56.59;98583.69;5086923;28;20050;-78
2022/09/28 07:45:25;;;;;;;6.85;3.80;;;;;;;21.96;55.95;98575.81;5105824;28;20016;-79
2022/09/28 07:47:54;;;;;;;8.07;4.70;;;;;;;21.77;55.97;98535.34;5090399;28;20095;-79
2022/09/28 07:50:20;;;;;;;5.65;4.30;;;;;;;21.63;55.78;98488.66;5073512;28;20024;-79
2022/09/28 07:52:46;;;;;;;5.18;3.53;;;;;;;22.22;55.60;98565.78;5078419;28;20035;-78
2022/09/28 07:55:12;;;;;;;5.32;4.28;;;;;;;21.78;55.68;98485.88;5079962;28;20020;-79
2022/09/28 07:57:38;;;;;;;6.43;3.95;;;;;;;21.85;55.21;98479.13;5084303;28;20481;-79
2022/09/28 08:00:07;;;;;;;6.43;3.75;;;;;;;22.09;55.21;98533.06;5079395;28;20534;-79
2022/09/28 08:02:34;;;;;;;6.82;3.97;;;;;;;22.59;54.98;98587.63;5086513;28;20069;-80
2022/09/28 08:05:01;;;;;;;5.53;3.88;;;;;;;21.96;54.83;98479.06;5087105;28;20032;-79
2022/09/28 08:07:26;;;;;;;8.48;6.03;;;;;;;22.66;54.75;98590.81;5081238;28;20028;-78
2022/09/28 08:09:52;;;;;;;9.30;6.60;;;;;;;22.12;54.40;98499.44;5087597;28;20081;-79
2022/09/28 08:12:18;;;;;;;6.28;4.45;;;;;;;22.78;54.31;98587.75;5076004;28;20024;-80
2022/09/28 08:14:45;;;;;;;7.68;6.88;;;;;;;22.87;54.14;98596.88;5087206;28;20536;-78
2022/09/28 08:17:10;;;;;;;7.40;6.03;;;;;;;22.98;54.04;98582.25;5085926;28;20015;-80
2022/09/28 08:22:20;;;;;;;6.97;4.50;;;;;;;22.45;53.23;98466.41;5090299;28;20058;-80
2022/09/28 08:24:46;;;;;;;5.68;5.03;;;;;;;23.27;52.93;98579.59;5090091;28;20064;-78
2022/09/28 08:27:13;;;;;;;5.95;4.40;;;;;;;22.81;52.77;98514.56;5077556;28;20458;-79
2022/09/28 08:29:39;;;;;;;7.88;6.35;;;;;;;23.27;52.57;98558.03;5078889;28;20054;-79
2022/09/28 08:32:07;;;;;;;20.10;15.90;;;;;;;23.18;52.53;98532.03;5076309;28;20108;-80
2022/09/28 08:34:34;;;;;;;4.63;4.10;;;;;;;23.62;51.95;98574.94;5076860;28;20028;-79
2022/09/28 08:36:59;;;;;;;7.63;4.07;;;;;;;23.58;51.48;98555.84;5075545;28;20420;-79
2022/09/28 08:39:25;;;;;;;6.63;5.22;;;;;;;23.19;51.33;98474.38;5078538;28;20028;-79
2022/09/28 08:41:57;;;;;;;5.97;4.18;;;;;;;23.74;50.84;98549.19;5075113;28;20516;-78
2022/09/28 08:44:25;;;;;;;6.20;3.70;;;;;;;23.88;50.22;98559.31;5085141;28;20031;-79
2022/09/28 08:47:05;;;;;;;13.20;6.72;;;;;;;23.99;50.57;98545.41;5077355;28;20048;-80
2022/09/28 08:49:38;;;;;;;5.57;5.00;;;;;;;24.20;50.01;98569.41;5094395;28;20102;-79
2022/09/28 08:52:19;;;;;;;4.88;4.47;;;;;;;24.37;49.87;98564.34;5084574;28;20509;-79
2022/09/28 08:55:06;;;;;;;8.02;6.15;;;;;;;24.49;49.41;98569.28;5073853;28;20515;-79
2022/09/28 08:57:57;;;;;;;6.30;3.63;;;;;;;24.56;48.98;98567.06;5076939;28;20040;-79
2022/09/28 09:00:33;;;;;;;8.65;6.38;;;;;;;24.36;48.53;98547.34;5071856;28;20079;-79
2022/09/28 09:03:04;;;;;;;5.78;3.50;;;;;;;24.22;48.14;98491.69;5082085;28;20050;-79
2022/09/28 09:05:49;;;;;;;5.07;2.85;;;;;;;24.84;46.55;98567.97;5090154;28;20032;-79
2022/09/28 09:08:40;;;;;;;8.55;7.65;;;;;;;24.94;46.36;98573.19;5076213;28;20542;-79
2022/09/28 09:11:25;;;;;;;4.47;3.50;;;;;;;24.86;46.17;98536.06;5073981;28;20414;-80
2022/09/28 09:14:11;;;;;;;7.25;6.25;;;;;;;24.64;45.04;98470.03;5076921;28;20476;-80
2022/09/28 09:16:58;;;;;;;6.78;5.03;;;;;;;25.33;45.38;98562.84;5090465;28;20028;-78
2022/09/28 09:19:39;;;;;;;4.88;3.42;;;;;;;25.44;45.12;98546.44;5078296;28;20032;-78
2022/09/28 09:22:14;;;;;;;5.50;4.20;;;;;;;25.63;45.12;98539.03;5086603;28;20032;-79
2022/09/28 09:24:50;;;;;;;7.30;3.78;;;;;;;25.57;44.65;98496.97;5073080;28;20020;-80
2022/09/28 09:27:36;;;;;;;4.95;3.05;;;;;;;26.00;44.16;98548.84;5086157;28;20024;-79
2022/09/28 09:30:13;;;;;;;4.07;3.05;;;;;;;26.07;44.02;98529.53;5092333;28;20149;-78
2022/09/28 09:32:52;;;;;;;5.22;4.72;;;;;;;25.94;43.43;98479.72;5086845;28;20020;-78
2022/09/28 09:35:45;;;;;;;8.88;7.82;;;;;;;25.89;42.79;98440.06;5089046;28;20540;-77
2022/09/28 09:38:36;;;;;;;5.95;4.10;;;;;;;26.42;41.67;98480.03;5082414;28;20029;-77
2022/09/28 09:41:20;;;;;;;9.25;8.35;;;;;;;26.95;40.50;98536.13;5073929;28;20078;-79
2022/09/28 09:44:17;;;;;;;4.03;3.08;;;;;;;27.07;38.70;98530.97;5073618;28;20024;-79
2022/09/28 09:46:51;;;;;;;3.15;2.58;;;;;;;27.17;39.40;98529.91;5072387;28;20112;-78
2022/09/28 09:49:46;;;;;;;3.60;2.80;;;;;;;27.35;38.39;98536.22;5072447;28;20044;-79
2022/09/28 09:52:25;;;;;;;4.82;3.13;;;;;;;27.33;39.18;98508.63;5075888;28;20095;-79
2022/09/28 09:55:08;;;;;;;2.50;2.30;;;;;;;27.68;38.61;98540.22;5086680;28;20074;-79
2022/09/28 09:57:50;;;;;;;3.10;2.60;;;;;;;27.27;37.50;98474.63;5092504;28;20038;-79
2022/09/28 10:00:16;;;;;;;5.35;3.78;;;;;;;27.55;37.51;98481.44;5093372;28;20527;-79
2022/09/28 10:02:45;;;;;;;2.75;2.45;;;;;;;28.03;37.01;98524.00;5088564;28;20032;-80
2022/09/28 10:05:10;;;;;;;3.28;2.83;;;;;;;28.20;36.50;98529.47;5085303;28;20032;-79
2022/09/28 10:07:54;;;;;;;4.55;2.97;;;;;;;28.38;36.42;98528.41;5072439;28;20024;-79
2022/09/28 10:10:28;;;;;;;7.60;5.15;;;;;;;28.61;35.87;98528.22;5089779;28;20355;-77
2022/09/28 10:12:54;;;;;;;3.22;2.92;;;;;;;28.51;35.53;98488.63;5081988;28;20075;-79
2022/09/28 10:15:28;;;;;;;2.80;2.10;;;;;;;28.79;34.51;98508.06;5082661;28;20070;-77
2022/09/28 10:18:08;;;;;;;4.50;2.05;;;;;;;28.98;33.34;98533.00;5085095;28;20485;-78
2022/09/28 10:20:37;;;;;;;3.70;3.25;;;;;;;28.92;32.50;98517.97;5090776;28;20491;-78
2022/09/28 10:23:06;;;;;;;1.75;1.50;;;;;;;28.77;31.78;98472.28;5103099;28;20127;-79
2022/09/28 10:25:36;;;;;;;4.32;2.67;;;;;;;28.95;31.85;98513.81;5090625;28;20026;-79
2022/09/28 10:28:05;;;;;;;3.38;1.77;;;;;;;28.53;31.53;98429.34;5092471;28;20016;-79
2022/09/28 10:30:40;;;;;;;2.65;1.80;;;;;;;28.08;31.25;98318.41;5088670;28;20020;-79
2022/09/28 10:33:32;;;;;;;4.13;2.10;;;;;;;29.21;30.95;98481.16;5084700;28;20029;-78
2022/09/28 10:36:00;;;;;;;2.40;1.30;;;;;;;29.74;30.77;98502.38;5092139;28;20499;-78
2022/09/28 10:38:27;;;;;;;2.88;2.13;;;;;;;29.52;30.72;98446.31;5083065;28;20028;-78
2022/09/28 10:40:57;;;;;;;2.88;2.20;;;;;;;29.90;30.61;98497.16;5085763;28;20459;-79
2022/09/28 10:43:37;;;;;;;2.88;1.60;;;;;;;29.94;28.39;98501.59;5088169;28;20035;-78
2022/09/28 10:46:12;;;;;;;3.75;1.50;;;;;;;29.59;29.35;98437.63;5072323;28;20032;-77
2022/09/28 10:48:55;;;;;;;2.55;1.38;;;;;;;29.65;28.23;98433.56;5074111;28;20420;-78
2022/09/28 10:51:43;;;;;;;3.67;1.45;;;;;;;30.17;27.97;98480.31;5077547;28;20051;-78
2022/09/28 10:54:16;;;;;;;1.77;1.42;;;;;;;29.99;28.58;98463.28;5073847;28;20043;-78
2022/09/28 10:56:42;;;;;;;1.52;1.20;;;;;;;29.82;29.29;98457.19;5072960;28;20095;-79
2022/09/28 10:59:28;;;;;;;3.83;2.17;;;;;;;29.72;29.50;98456.41;5086728;28;20107;-78
2022/09/28 11:02:02;;;;;;;2.58;1.80;;;;;;;29.84;29.52;98431.22;5091785;28;20173;-78
2022/09/28 11:04:37;;;;;;;4.40;2.25;;;;;;;29.63;29.53;98403.97;5090762;28;20114;-78
2022/09/28 11:07:03;;;;;;;4.82;2.67;;;;;;;29.72;29.50;98415.59;5091196;28;20520;-77
2022/09/28 11:09:31;;;;;;;3.40;1.88;;;;;;;29.64;29.83;98449.09;5089665;28;20110;-77
2022/09/28 11:11:58;;;;;;;3.90;2.38;;;;;;;28.06;30.32;98273.72;5091532;28;20558;-78
2022/09/28 11:14:32;;;;;;;3.50;1.85;;;;;;;28.61;30.38;98404.09;5091464;28;20020;-79
2022/09/28 11:17:27;;;;;;;4.70;2.10;;;;;;;28.59;31.61;98449.00;5089856;28;20020;-78
2022/09/28 11:19:54;;;;;;;4.50;1.83;;;;;;;27.98;32.73;98400.16;5071158;28;20078;-78
2022/09/28 11:22:26;;;;;;;6.93;5.53;;;;;;;28.06;33.62;98440.06;5071714;28;20170;-79
2022/09/28 11:24:52;;;;;;;5.00;2.38;;;;;;;27.57;34.31;98403.31;5074448;28;20104;-79
2022/09/28 11:27:25;;;;;;;7.53;3.53;;;;;;;27.65;34.89;98426.94;5090836;28;20103;-78
2022/09/28 11:29:57;;;;;;;6.15;2.17;;;;;;;27.04;35.22;98357.41;5091108;28;20052;-78
2022/09/28 11:32:27;;;;;;;2.90;2.33;;;;;;;27.43;35.54;98432.44;5091001;28;20461;-79
2022/09/28 11:34:57;;;;;;;6.87;5.20;;;;;;;27.32;36.31;98442.78;5091264;28;20016;-78
2022/09/28 11:38:00;;;;;;;4.53;2.10;;;;;;;27.23;36.24;98436.53;5079751;28;20016;-78
2022/09/28 11:40:43;;;;;;;5.82;2.90;;;;;;;26.82;36.41;98396.97;5072043;28;20025;-78
2022/09/28 11:43:19;;;;;;;4.13;3.50;;;;;;;26.97;36.52;98400.38;5071967;28;20532;-78
2022/09/28 11:45:51;;;;;;;3.30;2.20;;;;;;;27.44;35.72;98439.44;5070629;28;20032;-79
2022/09/28 11:48:24;;;;;;;5.65;2.95;;;;;;;27.03;35.77;98345.78;5073411;28;20037;-78
2022/09/28 11:51:15;;;;;;;7.13;4.35;;;;;;;27.54;35.64;98421.00;5080989;28;20070;-76
2022/09/28 11:53:44;;;;;;;2.72;2.53;;;;;;;27.71;35.63;98431.09;5099402;28;20036;-78
2022/09/28 11:56:33;;;;;;;6.45;2.25;;;;;;;27.61;35.53;98436.84;5103681;28;20077;-78
2022/09/28 11:59:05;;;;;;;6.45;3.75;;;;;;;26.96;35.53;98352.72;5076717;28;20020;-79